sensor_id;sensor_type;location;lat;lon;timestamp;P1;durP1;ratioP1;P2;durP2;ratioP2
27758;SDS011;15148;48.972;12.794;2023-08-06T00:01:44;4.40;;;4.00;;
27758;SDS011;15148;48.972;12.794;2023-08-06T00:06:46;4.78;;;3.83;;
27758;SDS011;15148;48.972;12.794;2023-08-06T00:11:48;5.57;;;4.28;;
27758;SDS011;15148;48.972;12.794;2023-08-06T00:16:50;5.57;;;3.95;;
27758;SDS011;15148;48.972;12.794;2023-08-06T00:21:52;4.78;;;4.38;;
27758;SDS011;15148;48.972;12.794;2023-08-06T00:26:54;7.45;;;4.57;;
27758;SDS011;15148;48.972;12.794;2023-08-06T00:31:56;8.40;;;4.95;;
27758;SDS011;15148;48.972;12.794;2023-08-06T00:36:59;5.22;;;4.65;;
27758;SDS011;15148;48.972;12.794;2023-08-06T00:42:01;5.70;;;4.57;;
27758;SDS011;15148;48.972;12.794;2023-08-06T00:47:03;4.20;;;3.85;;
27758;SDS011;15148;48.972;12.794;2023-08-06T00:52:05;21.20;;;4.97;;
27758;SDS011;15148;48.972;12.794;2023-08-06T00:57:11;4.68;;;4.20;;
27758;SDS011;15148;48.972;12.794;2023-08-06T01:02:13;5.45;;;4.95;;
27758;SDS011;15148;48.972;12.794;2023-08-06T01:13:22;5.72;;;5.22;;
27758;SDS011;15148;48.972;12.794;2023-08-06T01:18:21;5.50;;;4.97;;
27758;SDS011;15148;48.972;12.794;2023-08-06T01:23:22;5.68;;;5.13;;
27758;SDS011;15148;48.972;12.794;2023-08-06T01:33:48;12.25;;;5.65;;
27758;SDS011;15148;48.972;12.794;2023-08-06T01:38:55;7.28;;;5.47;;
27758;SDS011;15148;48.972;12.794;2023-08-06T01:43:59;8.35;;;6.15;;
27758;SDS011;15148;48.972;12.794;2023-08-06T01:49:02;6.80;;;5.72;;
27758;SDS011;15148;48.972;12.794;2023-08-06T01:54:04;7.60;;;6.40;;
27758;SDS011;15148;48.972;12.794;2023-08-06T01:59:06;9.45;;;7.05;;
27758;SDS011;15148;48.972;12.794;2023-08-06T02:04:07;7.82;;;7.03;;
27758;SDS011;15148;48.972;12.794;2023-08-06T02:09:09;9.00;;;8.15;;
27758;SDS011;15148;48.972;12.794;2023-08-06T02:14:11;9.45;;;7.80;;
27758;SDS011;15148;48.972;12.794;2023-08-06T02:19:13;9.20;;;8.45;;
27758;SDS011;15148;48.972;12.794;2023-08-06T02:24:15;10.00;;;8.85;;
27758;SDS011;15148;48.972;12.794;2023-08-06T02:29:17;10.60;;;9.10;;
27758;SDS011;15148;48.972;12.794;2023-08-06T02:34:19;11.57;;;9.13;;
27758;SDS011;15148;48.972;12.794;2023-08-06T02:39:21;10.95;;;9.85;;
27758;SDS011;15148;48.972;12.794;2023-08-06T02:44:23;12.05;;;10.43;;
27758;SDS011;15148;48.972;12.794;2023-08-06T02:49:29;10.48;;;9.57;;
27758;SDS011;15148;48.972;12.794;2023-08-06T02:54:30;11.02;;;9.48;;
27758;SDS011;15148;48.972;12.794;2023-08-06T02:59:33;10.93;;;9.82;;
27758;SDS011;15148;48.972;12.794;2023-08-06T03:04:40;10.23;;;9.33;;
27758;SDS011;15148;48.972;12.794;2023-08-06T03:09:44;11.50;;;10.40;;
27758;SDS011;15148;48.972;12.794;2023-08-06T03:14:47;11.35;;;10.10;;
27758;SDS011;15148;48.972;12.794;2023-08-06T03:19:50;11.80;;;10.80;;
27758;SDS011;15148;48.972;12.794;2023-08-06T03:24:53;10.95;;;9.95;;
27758;SDS011;15148;48.972;12.794;2023-08-06T03:29:57;9.55;;;8.73;;
27758;SDS011;15148;48.972;12.794;2023-08-06T03:35:01;10.63;;;9.63;;
27758;SDS011;15148;48.972;12.794;2023-08-06T03:40:04;10.55;;;9.55;;
27758;SDS011;15148;48.972;12.794;2023-08-06T03:45:08;11.18;;;9.15;;
27758;SDS011;15148;48.972;12.794;2023-08-06T03:50:12;8.98;;;7.85;;
27758;SDS011;15148;48.972;12.794;2023-08-06T03:55:14;7.22;;;6.50;;
27758;SDS011;15148;48.972;12.794;2023-08-06T04:00:16;7.75;;;6.95;;
27758;SDS011;15148;48.972;12.794;2023-08-06T04:05:25;7.30;;;6.18;;
27758;SDS011;15148;48.972;12.794;2023-08-06T04:10:28;5.22;;;4.72;;
27758;SDS011;15148;48.972;12.794;2023-08-06T04:15:33;7.50;;;4.30;;
27758;SDS011;15148;48.972;12.794;2023-08-06T04:20:42;7.05;;;4.95;;
27758;SDS011;15148;48.972;12.794;2023-08-06T04:25:47;5.53;;;5.03;;
27758;SDS011;15148;48.972;12.794;2023-08-06T04:30:49;6.95;;;4.63;;
27758;SDS011;15148;48.972;12.794;2023-08-06T04:35:54;6.45;;;5.18;;
27758;SDS011;15148;48.972;12.794;2023-08-06T04:40:58;6.45;;;5.30;;
27758;SDS011;15148;48.972;12.794;2023-08-06T04:46:00;7.75;;;5.88;;
27758;SDS011;15148;48.972;12.794;2023-08-06T04:51:02;6.45;;;4.70;;
27758;SDS011;15148;48.972;12.794;2023-08-06T04:56:04;6.63;;;5.10;;
27758;SDS011;15148;48.972;12.794;2023-08-06T05:01:06;5.45;;;4.93;;
27758;SDS011;15148;48.972;12.794;2023-08-06T05:06:08;5.47;;;5.00;;
27758;SDS011;15148;48.972;12.794;2023-08-06T05:11:10;10.52;;;5.50;;
27758;SDS011;15148;48.972;12.794;2023-08-06T05:16:12;6.38;;;5.05;;
27758;SDS011;15148;48.972;12.794;2023-08-06T05:21:14;7.50;;;5.78;;
27758;SDS011;15148;48.972;12.794;2023-08-06T05:26:17;7.22;;;6.53;;
27758;SDS011;15148;48.972;12.794;2023-08-06T05:31:20;8.10;;;7.30;;
27758;SDS011;15148;48.972;12.794;2023-08-06T05:36:22;5.35;;;4.95;;
27758;SDS011;15148;48.972;12.794;2023-08-06T05:41:24;6.43;;;5.78;;
27758;SDS011;15148;48.972;12.794;2023-08-06T05:46:26;6.45;;;5.22;;
27758;SDS011;15148;48.972;12.794;2023-08-06T05:51:28;5.90;;;5.40;;
27758;SDS011;15148;48.972;12.794;2023-08-06T05:56:30;4.88;;;4.47;;
27758;SDS011;15148;48.972;12.794;2023-08-06T06:01:32;6.85;;;5.63;;
27758;SDS011;15148;48.972;12.794;2023-08-06T06:06:34;5.63;;;5.13;;
27758;SDS011;15148;48.972;12.794;2023-08-06T06:11:37;5.95;;;5.40;;
27758;SDS011;15148;48.972;12.794;2023-08-06T06:16:39;6.60;;;5.60;;
27758;SDS011;15148;48.972;12.794;2023-08-06T06:21:40;6.07;;;4.88;;
27758;SDS011;15148;48.972;12.794;2023-08-06T06:26:42;5.60;;;5.10;;
27758;SDS011;15148;48.972;12.794;2023-08-06T06:31:44;6.65;;;5.22;;
27758;SDS011;15148;48.972;12.794;2023-08-06T06:36:46;5.57;;;5.15;;
27758;SDS011;15148;48.972;12.794;2023-08-06T06:41:48;6.15;;;5.05;;
27758;SDS011;15148;48.972;12.794;2023-08-06T06:46:59;6.25;;;5.10;;
27758;SDS011;15148;48.972;12.794;2023-08-06T06:52:01;10.05;;;5.68;;
27758;SDS011;15148;48.972;12.794;2023-08-06T06:57:03;5.47;;;4.97;;
27758;SDS011;15148;48.972;12.794;2023-08-06T07:02:05;5.72;;;5.13;;
27758;SDS011;15148;48.972;12.794;2023-08-06T07:07:07;5.72;;;4.75;;
27758;SDS011;15148;48.972;12.794;2023-08-06T07:12:10;5.63;;;5.10;;
27758;SDS011;15148;48.972;12.794;2023-08-06T07:17:12;5.65;;;5.10;;
27758;SDS011;15148;48.972;12.794;2023-08-06T07:22:14;5.28;;;4.88;;
27758;SDS011;15148;48.972;12.794;2023-08-06T07:27:16;5.80;;;5.13;;
27758;SDS011;15148;48.972;12.794;2023-08-06T07:32:18;5.50;;;5.10;;
27758;SDS011;15148;48.972;12.794;2023-08-06T07:37:19;6.03;;;5.57;;
27758;SDS011;15148;48.972;12.794;2023-08-06T07:42:21;5.32;;;4.82;;
27758;SDS011;15148;48.972;12.794;2023-08-06T07:47:24;6.53;;;5.30;;
27758;SDS011;15148;48.972;12.794;2023-08-06T07:52:26;5.75;;;5.15;;
27758;SDS011;15148;48.972;12.794;2023-08-06T07:57:28;5.60;;;4.97;;
27758;SDS011;15148;48.972;12.794;2023-08-06T08:02:30;5.88;;;5.20;;
27758;SDS011;15148;48.972;12.794;2023-08-06T08:07:32;6.80;;;4.90;;
27758;SDS011;15148;48.972;12.794;2023-08-06T08:12:33;5.60;;;5.13;;
27758;SDS011;15148;48.972;12.794;2023-08-06T08:17:35;7.82;;;6.03;;
27758;SDS011;15148;48.972;12.794;2023-08-06T08:22:37;7.35;;;6.75;;
27758;SDS011;15148;48.972;12.794;2023-08-06T08:27:39;8.70;;;7.97;;
27758;SDS011;15148;48.972;12.794;2023-08-06T08:32:41;8.25;;;7.45;;
27758;SDS011;15148;48.972;12.794;2023-08-06T08:37:43;8.88;;;8.07;;
27758;SDS011;15148;48.972;12.794;2023-08-06T08:42:45;7.65;;;7.05;;
27758;SDS011;15148;48.972;12.794;2023-08-06T08:47:47;8.02;;;7.32;;
27758;SDS011;15148;48.972;12.794;2023-08-06T08:52:50;8.52;;;7.65;;
27758;SDS011;15148;48.972;12.794;2023-08-06T08:57:52;7.47;;;6.78;;
27758;SDS011;15148;48.972;12.794;2023-08-06T09:02:54;8.10;;;7.40;;
27758;SDS011;15148;48.972;12.794;2023-08-06T09:07:58;8.68;;;7.88;;
27758;SDS011;15148;48.972;12.794;2023-08-06T09:13:04;7.60;;;6.90;;
27758;SDS011;15148;48.972;12.794;2023-08-06T09:18:12;6.90;;;6.05;;
27758;SDS011;15148;48.972;12.794;2023-08-06T09:23:14;5.72;;;4.97;;
27758;SDS011;15148;48.972;12.794;2023-08-06T09:28:16;6.97;;;5.80;;
27758;SDS011;15148;48.972;12.794;2023-08-06T09:33:18;10.00;;;5.13;;
27758;SDS011;15148;48.972;12.794;2023-08-06T09:38:20;5.93;;;4.88;;
27758;SDS011;15148;48.972;12.794;2023-08-06T09:43:22;8.77;;;6.60;;
27758;SDS011;15148;48.972;12.794;2023-08-06T09:48:24;5.57;;;4.45;;
27758;SDS011;15148;48.972;12.794;2023-08-06T09:53:26;10.27;;;4.65;;
27758;SDS011;15148;48.972;12.794;2023-08-06T09:58:29;3.60;;;3.30;;
27758;SDS011;15148;48.972;12.794;2023-08-06T10:03:33;3.60;;;2.65;;
27758;SDS011;15148;48.972;12.794;2023-08-06T10:08:36;3.92;;;1.90;;
27758;SDS011;15148;48.972;12.794;2023-08-06T10:13:38;2.10;;;1.90;;
27758;SDS011;15148;48.972;12.794;2023-08-06T10:18:41;1.55;;;1.45;;
27758;SDS011;15148;48.972;12.794;2023-08-06T10:23:44;1.40;;;1.17;;
27758;SDS011;15148;48.972;12.794;2023-08-06T10:28:54;1.40;;;1.30;;
27758;SDS011;15148;48.972;12.794;2023-08-06T10:33:57;3.08;;;1.52;;
27758;SDS011;15148;48.972;12.794;2023-08-06T10:38:59;2.45;;;2.17;;
27758;SDS011;15148;48.972;12.794;2023-08-06T10:44:09;2.38;;;2.17;;
27758;SDS011;15148;48.972;12.794;2023-08-06T10:49:12;2.85;;;1.63;;
27758;SDS011;15148;48.972;12.794;2023-08-06T10:54:15;2.17;;;1.40;;
27758;SDS011;15148;48.972;12.794;2023-08-06T10:59:17;2.95;;;1.17;;
27758;SDS011;15148;48.972;12.794;2023-08-06T11:04:19;1.30;;;0.80;;
27758;SDS011;15148;48.972;12.794;2023-08-06T11:09:22;2.33;;;0.73;;
27758;SDS011;15148;48.972;12.794;2023-08-06T11:14:24;1.13;;;0.75;;
27758;SDS011;15148;48.972;12.794;2023-08-06T11:19:27;3.45;;;0.60;;
27758;SDS011;15148;48.972;12.794;2023-08-06T11:24:29;2.10;;;0.73;;
27758;SDS011;15148;48.972;12.794;2023-08-06T11:29:31;1.10;;;0.63;;
27758;SDS011;15148;48.972;12.794;2023-08-06T11:34:39;2.83;;;0.90;;
27758;SDS011;15148;48.972;12.794;2023-08-06T11:39:46;1.25;;;1.00;;
27758;SDS011;15148;48.972;12.794;2023-08-06T11:44:51;1.17;;;0.93;;
27758;SDS011;15148;48.972;12.794;2023-08-06T11:49:53;2.28;;;0.80;;
27758;SDS011;15148;48.972;12.794;2023-08-06T12:00:08;0.75;;;0.70;;
27758;SDS011;15148;48.972;12.794;2023-08-06T12:05:18;1.02;;;0.88;;
27758;SDS011;15148;48.972;12.794;2023-08-06T12:10:28;1.83;;;1.30;;
27758;SDS011;15148;48.972;12.794;2023-08-06T12:15:31;1.35;;;0.98;;
27758;SDS011;15148;48.972;12.794;2023-08-06T12:20:34;1.30;;;1.20;;
27758;SDS011;15148;48.972;12.794;2023-08-06T12:25:36;2.75;;;1.50;;
27758;SDS011;15148;48.972;12.794;2023-08-06T12:30:37;1.20;;;1.10;;
27758;SDS011;15148;48.972;12.794;2023-08-06T12:35:43;0.90;;;0.88;;
27758;SDS011;15148;48.972;12.794;2023-08-06T12:40:44;1.92;;;1.10;;
27758;SDS011;15148;48.972;12.794;2023-08-06T12:45:46;1.55;;;1.42;;
27758;SDS011;15148;48.972;12.794;2023-08-06T12:50:50;1.00;;;1.00;;
27758;SDS011;15148;48.972;12.794;2023-08-06T12:55:52;3.88;;;0.95;;
27758;SDS011;15148;48.972;12.794;2023-08-06T13:00:54;0.73;;;0.70;;
27758;SDS011;15148;48.972;12.794;2023-08-06T13:05:56;2.00;;;1.15;;
27758;SDS011;15148;48.972;12.794;2023-08-06T13:10:59;3.08;;;1.58;;
27758;SDS011;15148;48.972;12.794;2023-08-06T13:16:00;3.03;;;1.45;;
27758;SDS011;15148;48.972;12.794;2023-08-06T13:21:02;8.82;;;2.08;;
27758;SDS011;15148;48.972;12.794;2023-08-06T13:26:04;4.00;;;0.90;;
27758;SDS011;15148;48.972;12.794;2023-08-06T13:31:06;4.05;;;1.30;;
27758;SDS011;15148;48.972;12.794;2023-08-06T13:36:09;2.15;;;0.80;;
27758;SDS011;15148;48.972;12.794;2023-08-06T13:41:11;1.85;;;0.55;;
27758;SDS011;15148;48.972;12.794;2023-08-06T13:46:13;2.03;;;0.85;;
27758;SDS011;15148;48.972;12.794;2023-08-06T13:51:20;0.68;;;0.40;;
27758;SDS011;15148;48.972;12.794;2023-08-06T13:56:21;4.25;;;1.15;;
27758;SDS011;15148;48.972;12.794;2023-08-06T14:01:24;4.45;;;0.60;;
27758;SDS011;15148;48.972;12.794;2023-08-06T14:06:45;3.63;;;0.40;;
27758;SDS011;15148;48.972;12.794;2023-08-06T14:11:47;0.50;;;0.30;;
27758;SDS011;15148;48.972;12.794;2023-08-06T14:16:49;0.20;;;0.20;;
27758;SDS011;15148;48.972;12.794;2023-08-06T14:21:51;1.25;;;0.40;;
27758;SDS011;15148;48.972;12.794;2023-08-06T14:26:53;1.30;;;0.22;;
27758;SDS011;15148;48.972;12.794;2023-08-06T14:31:56;0.20;;;0.20;;
27758;SDS011;15148;48.972;12.794;2023-08-06T14:36:58;0.10;;;0.10;;
27758;SDS011;15148;48.972;12.794;2023-08-06T14:42:00;0.00;;;0.00;;
27758;SDS011;15148;48.972;12.794;2023-08-06T14:47:03;1.48;;;0.20;;
27758;SDS011;15148;48.972;12.794;2023-08-06T14:52:05;0.05;;;0.05;;
27758;SDS011;15148;48.972;12.794;2023-08-06T14:57:09;0.43;;;0.20;;
27758;SDS011;15148;48.972;12.794;2023-08-06T15:02:11;0.10;;;0.10;;
27758;SDS011;15148;48.972;12.794;2023-08-06T15:07:13;0.30;;;0.20;;
27758;SDS011;15148;48.972;12.794;2023-08-06T15:12:15;3.33;;;0.22;;
27758;SDS011;15148;48.972;12.794;2023-08-06T15:17:18;0.90;;;0.32;;
27758;SDS011;15148;48.972;12.794;2023-08-06T15:22:20;0.10;;;0.10;;
27758;SDS011;15148;48.972;12.794;2023-08-06T15:27:22;0.80;;;0.52;;
27758;SDS011;15148;48.972;12.794;2023-08-06T15:32:24;3.85;;;1.92;;
27758;SDS011;15148;48.972;12.794;2023-08-06T15:37:26;1.95;;;1.73;;
27758;SDS011;15148;48.972;12.794;2023-08-06T15:42:29;2.25;;;2.05;;
27758;SDS011;15148;48.972;12.794;2023-08-06T15:47:31;20.27;;;16.50;;
27758;SDS011;15148;48.972;12.794;2023-08-06T15:52:33;0.47;;;0.47;;
27758;SDS011;15148;48.972;12.794;2023-08-06T15:57:36;0.98;;;0.88;;
27758;SDS011;15148;48.972;12.794;2023-08-06T16:02:38;1.05;;;1.05;;
27758;SDS011;15148;48.972;12.794;2023-08-06T16:07:40;1.38;;;1.27;;
27758;SDS011;15148;48.972;12.794;2023-08-06T16:12:42;3.70;;;1.17;;
27758;SDS011;15148;48.972;12.794;2023-08-06T16:17:44;2.13;;;1.92;;
27758;SDS011;15148;48.972;12.794;2023-08-06T16:22:47;2.08;;;0.80;;
27758;SDS011;15148;48.972;12.794;2023-08-06T16:27:49;1.67;;;0.90;;
27758;SDS011;15148;48.972;12.794;2023-08-06T16:32:51;2.58;;;2.47;;
27758;SDS011;15148;48.972;12.794;2023-08-06T16:37:53;1.55;;;1.48;;
27758;SDS011;15148;48.972;12.794;2023-08-06T16:42:55;0.70;;;0.70;;
27758;SDS011;15148;48.972;12.794;2023-08-06T16:47:57;1.70;;;1.60;;
27758;SDS011;15148;48.972;12.794;2023-08-06T16:52:59;1.30;;;1.20;;
27758;SDS011;15148;48.972;12.794;2023-08-06T16:58:01;2.45;;;2.25;;
27758;SDS011;15148;48.972;12.794;2023-08-06T17:03:03;10.93;;;4.75;;
27758;SDS011;15148;48.972;12.794;2023-08-06T17:08:05;4.47;;;4.07;;
27758;SDS011;15148;48.972;12.794;2023-08-06T17:13:07;2.13;;;1.15;;
27758;SDS011;15148;48.972;12.794;2023-08-06T17:18:21;3.88;;;3.58;;
27758;SDS011;15148;48.972;12.794;2023-08-06T17:23:23;5.90;;;5.03;;
27758;SDS011;15148;48.972;12.794;2023-08-06T17:28:25;3.60;;;2.50;;
27758;SDS011;15148;48.972;12.794;2023-08-06T17:33:26;4.13;;;3.50;;
27758;SDS011;15148;48.972;12.794;2023-08-06T17:38:28;3.65;;;3.35;;
27758;SDS011;15148;48.972;12.794;2023-08-06T17:43:30;3.20;;;1.90;;
27758;SDS011;15148;48.972;12.794;2023-08-06T17:48:32;1.88;;;1.50;;
27758;SDS011;15148;48.972;12.794;2023-08-06T17:53:34;1.50;;;1.40;;
27758;SDS011;15148;48.972;12.794;2023-08-06T17:58:36;1.60;;;1.50;;
27758;SDS011;15148;48.972;12.794;2023-08-06T18:03:38;4.82;;;3.30;;
27758;SDS011;15148;48.972;12.794;2023-08-06T18:08:40;2.80;;;2.38;;
27758;SDS011;15148;48.972;12.794;2023-08-06T18:13:42;4.68;;;1.65;;
27758;SDS011;15148;48.972;12.794;2023-08-06T18:18:44;2.58;;;1.40;;
27758;SDS011;15148;48.972;12.794;2023-08-06T18:23:48;1.40;;;1.30;;
27758;SDS011;15148;48.972;12.794;2023-08-06T18:28:50;1.35;;;1.25;;
27758;SDS011;15148;48.972;12.794;2023-08-06T18:33:52;1.60;;;1.25;;
27758;SDS011;15148;48.972;12.794;2023-08-06T18:38:54;3.97;;;1.30;;
27758;SDS011;15148;48.972;12.794;2023-08-06T18:43:56;1.42;;;1.27;;
27758;SDS011;15148;48.972;12.794;2023-08-06T18:48:58;1.40;;;1.30;;
27758;SDS011;15148;48.972;12.794;2023-08-06T18:54:00;1.75;;;1.20;;
27758;SDS011;15148;48.972;12.794;2023-08-06T18:59:02;5.38;;;2.00;;
27758;SDS011;15148;48.972;12.794;2023-08-06T19:04:04;1.35;;;1.25;;
27758;SDS011;15148;48.972;12.794;2023-08-06T19:09:06;1.15;;;1.05;;
27758;SDS011;15148;48.972;12.794;2023-08-06T19:14:08;1.40;;;1.30;;
27758;SDS011;15148;48.972;12.794;2023-08-06T19:19:10;2.33;;;1.20;;
27758;SDS011;15148;48.972;12.794;2023-08-06T19:24:12;1.90;;;0.80;;
27758;SDS011;15148;48.972;12.794;2023-08-06T19:29:15;1.95;;;1.23;;
27758;SDS011;15148;48.972;12.794;2023-08-06T19:34:17;2.20;;;0.68;;
27758;SDS011;15148;48.972;12.794;2023-08-06T19:39:19;1.15;;;0.80;;
27758;SDS011;15148;48.972;12.794;2023-08-06T19:44:21;1.58;;;0.77;;
27758;SDS011;15148;48.972;12.794;2023-08-06T19:49:23;1.33;;;0.93;;
27758;SDS011;15148;48.972;12.794;2023-08-06T19:54:25;2.13;;;1.02;;
27758;SDS011;15148;48.972;12.794;2023-08-06T19:59:27;0.75;;;0.75;;
27758;SDS011;15148;48.972;12.794;2023-08-06T20:04:29;0.80;;;0.80;;
27758;SDS011;15148;48.972;12.794;2023-08-06T20:09:30;0.93;;;0.93;;
27758;SDS011;15148;48.972;12.794;2023-08-06T20:14:33;0.90;;;0.88;;
27758;SDS011;15148;48.972;12.794;2023-08-06T20:19:35;1.13;;;0.95;;
27758;SDS011;15148;48.972;12.794;2023-08-06T20:24:37;1.60;;;0.90;;
27758;SDS011;15148;48.972;12.794;2023-08-06T20:29:39;3.20;;;1.20;;
27758;SDS011;15148;48.972;12.794;2023-08-06T20:34:41;2.10;;;0.93;;
27758;SDS011;15148;48.972;12.794;2023-08-06T20:39:43;2.03;;;1.23;;
27758;SDS011;15148;48.972;12.794;2023-08-06T20:44:45;0.95;;;0.93;;
27758;SDS011;15148;48.972;12.794;2023-08-06T20:49:47;3.67;;;1.33;;
27758;SDS011;15148;48.972;12.794;2023-08-06T20:54:49;1.83;;;1.00;;
27758;SDS011;15148;48.972;12.794;2023-08-06T20:59:51;1.00;;;1.00;;
27758;SDS011;15148;48.972;12.794;2023-08-06T21:04:53;2.45;;;1.00;;
27758;SDS011;15148;48.972;12.794;2023-08-06T21:09:55;0.88;;;0.88;;
27758;SDS011;15148;48.972;12.794;2023-08-06T21:14:57;1.05;;;0.75;;
27758;SDS011;15148;48.972;12.794;2023-08-06T21:19:59;0.77;;;0.77;;
27758;SDS011;15148;48.972;12.794;2023-08-06T21:25:01;3.05;;;1.00;;
27758;SDS011;15148;48.972;12.794;2023-08-06T21:30:03;3.78;;;1.10;;
27758;SDS011;15148;48.972;12.794;2023-08-06T21:35:05;1.83;;;1.08;;
27758;SDS011;15148;48.972;12.794;2023-08-06T21:40:11;0.95;;;0.95;;
27758;SDS011;15148;48.972;12.794;2023-08-06T21:45:13;1.95;;;0.77;;
27758;SDS011;15148;48.972;12.794;2023-08-06T21:50:15;0.98;;;0.68;;
27758;SDS011;15148;48.972;12.794;2023-08-06T21:55:18;0.90;;;0.73;;
27758;SDS011;15148;48.972;12.794;2023-08-06T22:00:20;1.00;;;0.95;;
27758;SDS011;15148;48.972;12.794;2023-08-06T22:05:22;0.70;;;0.70;;
27758;SDS011;15148;48.972;12.794;2023-08-06T22:10:24;0.80;;;0.75;;
27758;SDS011;15148;48.972;12.794;2023-08-06T22:15:26;1.02;;;0.43;;
27758;SDS011;15148;48.972;12.794;2023-08-06T22:20:28;1.95;;;0.52;;
27758;SDS011;15148;48.972;12.794;2023-08-06T22:25:30;3.88;;;0.80;;
27758;SDS011;15148;48.972;12.794;2023-08-06T22:30:32;2.83;;;1.52;;
27758;SDS011;15148;48.972;12.794;2023-08-06T22:35:34;1.70;;;1.50;;
27758;SDS011;15148;48.972;12.794;2023-08-06T22:40:36;3.08;;;1.42;;
27758;SDS011;15148;48.972;12.794;2023-08-06T22:45:38;1.60;;;1.23;;
27758;SDS011;15148;48.972;12.794;2023-08-06T22:50:40;2.95;;;1.42;;
27758;SDS011;15148;48.972;12.794;2023-08-06T22:55:42;2.28;;;1.60;;
27758;SDS011;15148;48.972;12.794;2023-08-06T23:00:47;1.95;;;1.65;;
27758;SDS011;15148;48.972;12.794;2023-08-06T23:05:48;4.80;;;1.63;;
27758;SDS011;15148;48.972;12.794;2023-08-06T23:10:50;4.78;;;1.73;;
27758;SDS011;15148;48.972;12.794;2023-08-06T23:15:52;1.50;;;1.40;;
27758;SDS011;15148;48.972;12.794;2023-08-06T23:20:54;2.90;;;1.52;;
27758;SDS011;15148;48.972;12.794;2023-08-06T23:25:56;4.45;;;1.58;;
27758;SDS011;15148;48.972;12.794;2023-08-06T23:30:58;2.75;;;1.58;;
27758;SDS011;15148;48.972;12.794;2023-08-06T23:36:00;2.15;;;1.88;;
27758;SDS011;15148;48.972;12.794;2023-08-06T23:41:02;3.75;;;2.33;;
27758;SDS011;15148;48.972;12.794;2023-08-06T23:46:04;2.08;;;1.65;;
27758;SDS011;15148;48.972;12.794;2023-08-06T23:51:05;2.75;;;2.00;;
27758;SDS011;15148;48.972;12.794;2023-08-06T23:56:07;3.95;;;2.28;;
